Time;durP1;ratioP1;P1;durP2;ratioP2;P2;SDS_P1;SDS_P2;PMS_P1;PMS_P2;Temp;Humidity;BMP_temperature;BMP_pressure;BME280_temperature;BME280_humidity;BME280_pressure;Samples;Min_cycle;Max_cycle;Signal;HPM_P1;HPM_P2
2023/07/22 00:02:17;;;;;;;18.00;9.98;;;16.50;99.90;;;;;;4935154;29;20436;-72
2023/07/22 00:04:43;;;;;;;14.52;7.80;;;16.50;99.90;;;;;;4935410;29;20046;-71
2023/07/22 00:07:08;;;;;;;16.05;8.98;;;16.60;99.90;;;;;;4935611;29;20080;-70
2023/07/22 00:09:34;;;;;;;17.25;7.82;;;16.60;99.90;;;;;;4935452;29;20035;-74
2023/07/22 00:11:59;;;;;;;14.30;7.68;;;16.50;99.90;;;;;;4935592;29;20519;-71
2023/07/22 00:14:25;;;;;;;15.40;7.20;;;16.50;99.90;;;;;;4935363;29;20027;-72
2023/07/22 00:16:51;;;;;;;14.43;7.43;;;16.50;99.90;;;;;;4935054;29;20035;-70
2023/07/22 00:19:16;;;;;;;14.95;8.05;;;16.50;99.90;;;;;;4934889;29;20468;-71
2023/07/22 00:21:42;;;;;;;15.38;7.68;;;16.50;99.90;;;;;;4934776;29;20039;-72
2023/07/22 00:24:09;;;;;;;13.30;6.78;;;16.50;99.90;;;;;;4935007;29;20027;-74
2023/07/22 00:26:35;;;;;;;14.35;6.97;;;16.50;99.90;;;;;;4935067;29;20035;-72
2023/07/22 00:29:00;;;;;;;14.52;7.00;;;16.40;99.90;;;;;;4933633;29;20493;-71
2023/07/22 00:31:27;;;;;;;15.18;7.55;;;16.40;99.90;;;;;;4934756;29;20020;-70
2023/07/22 00:33:53;;;;;;;12.32;7.10;;;16.30;99.90;;;;;;4934626;29;20107;-71
2023/07/22 00:36:18;;;;;;;15.25;7.88;;;16.30;99.90;;;;;;4934623;29;20500;-71
2023/07/22 00:38:44;;;;;;;17.92;7.82;;;16.30;99.90;;;;;;4935064;29;20036;-72
2023/07/22 00:41:10;;;;;;;15.57;7.20;;;16.20;99.90;;;;;;4934589;29;20079;-72
2023/07/22 00:43:38;;;;;;;15.13;7.38;;;16.20;99.90;;;;;;4934931;29;20024;-71
2023/07/22 00:46:03;;;;;;;14.95;7.72;;;16.10;99.90;;;;;;4934627;29;20031;-73
2023/07/22 00:48:30;;;;;;;14.68;6.93;;;16.10;99.90;;;;;;4934779;29;20058;-71
2023/07/22 00:50:55;;;;;;;16.90;7.97;;;16.10;99.90;;;;;;4934840;29;20112;-71
2023/07/22 00:53:21;;;;;;;14.30;7.07;;;16.10;99.90;;;;;;4934701;29;20120;-71
2023/07/22 00:55:47;;;;;;;14.85;7.03;;;16.10;99.90;;;;;;4933399;29;20088;-73
2023/07/22 00:58:12;;;;;;;16.02;7.30;;;16.10;99.90;;;;;;4934634;29;20024;-72
2023/07/22 01:00:38;;;;;;;15.80;7.88;;;16.10;99.90;;;;;;4933107;29;20388;-72
2023/07/22 01:03:04;;;;;;;16.00;8.30;;;16.00;99.90;;;;;;4938718;29;20038;-72
2023/07/22 01:05:30;;;;;;;15.50;7.90;;;16.00;99.90;;;;;;4938170;29;20075;-72
2023/07/22 01:07:56;;;;;;;16.45;7.65;;;16.00;99.90;;;;;;4938344;29;20115;-73
2023/07/22 01:10:22;;;;;;;17.73;8.68;;;15.90;99.90;;;;;;4938320;29;20108;-70
2023/07/22 01:12:48;;;;;;;18.85;9.23;;;15.90;99.90;;;;;;4938043;29;20055;-70
2023/07/22 01:15:14;;;;;;;14.93;7.93;;;15.80;99.90;;;;;;4938040;29;20034;-72
2023/07/22 01:17:40;;;;;;;16.42;8.65;;;15.80;99.90;;;;;;4938128;29;20057;-71
2023/07/22 01:20:06;;;;;;;17.33;8.40;;;15.70;99.90;;;;;;4937837;29;20027;-72
2023/07/22 01:22:33;;;;;;;17.55;9.00;;;15.70;99.90;;;;;;4937451;29;20035;-70
2023/07/22 01:25:00;;;;;;;19.15;8.98;;;15.60;99.90;;;;;;4936435;29;20032;-70
2023/07/22 01:27:25;;;;;;;19.25;9.00;;;15.70;99.90;;;;;;4937784;29;20039;-73
2023/07/22 01:29:51;;;;;;;16.50;8.68;;;15.70;99.90;;;;;;4936912;29;20032;-72
2023/07/22 01:32:18;;;;;;;16.15;8.95;;;15.60;99.90;;;;;;4936310;29;20082;-71
2023/07/22 01:34:44;;;;;;;16.90;8.90;;;15.70;99.90;;;;;;4936394;29;20086;-70
2023/07/22 01:37:10;;;;;;;15.38;7.45;;;15.70;99.90;;;;;;4936695;29;20736;-72
2023/07/22 01:39:36;;;;;;;16.40;8.75;;;15.70;99.90;;;;;;4936734;29;20039;-73
2023/07/22 01:42:02;;;;;;;16.88;9.02;;;15.70;99.90;;;;;;4936872;29;20063;-73
2023/07/22 01:44:27;;;;;;;18.02;8.02;;;15.70;99.90;;;;;;4937116;29;20098;-72
2023/07/22 01:46:53;;;;;;;17.60;8.85;;;15.80;99.90;;;;;;4937566;29;20063;-73
2023/07/22 01:49:19;;;;;;;16.35;8.32;;;15.80;99.90;;;;;;4937564;29;20484;-73
2023/07/22 01:51:45;;;;;;;16.73;8.05;;;15.80;99.90;;;;;;4937467;29;20031;-72
2023/07/22 01:54:12;;;;;;;20.13;9.00;;;15.80;99.90;;;;;;4937651;29;20032;-73
2023/07/22 01:56:38;;;;;;;17.05;8.18;;;15.80;99.90;;;;;;4937553;29;20030;-72
2023/07/22 01:59:04;;;;;;;19.45;9.70;;;15.70;99.90;;;;;;4937013;29;20020;-72
2023/07/22 02:01:30;;;;;;;13.75;7.38;;;15.70;99.90;;;;;;4937634;29;20126;-73
2023/07/22 02:03:56;;;;;;;16.42;7.88;;;15.70;99.90;;;;;;4936754;29;20544;-71
2023/07/22 02:06:22;;;;;;;16.85;8.57;;;15.70;99.90;;;;;;4937511;29;20520;-71
2023/07/22 02:08:48;;;;;;;16.17;7.75;;;15.60;99.90;;;;;;4937613;29;20027;-73
2023/07/22 02:11:13;;;;;;;19.05;8.15;;;15.60;99.90;;;;;;4937445;29;20095;-73
2023/07/22 02:13:39;;;;;;;15.57;7.93;;;15.60;99.90;;;;;;4936400;29;20024;-72
2023/07/22 02:16:05;;;;;;;15.77;8.20;;;15.60;99.90;;;;;;4935995;29;20484;-71
2023/07/22 02:18:30;;;;;;;15.43;7.85;;;15.50;99.90;;;;;;4936992;29;20568;-72
2023/07/22 02:20:57;;;;;;;15.38;7.43;;;15.50;99.90;;;;;;4936745;29;20107;-70
2023/07/22 02:23:23;;;;;;;16.25;8.02;;;15.60;99.90;;;;;;4937095;29;20036;-72
2023/07/22 02:25:53;;;;;;;16.02;7.60;;;15.50;99.90;;;;;;4936973;29;20465;-72
2023/07/22 02:28:23;;;;;;;15.23;7.55;;;15.50;99.90;;;;;;4936420;29;20031;-72
2023/07/22 02:30:52;;;;;;;15.38;7.60;;;15.50;99.90;;;;;;4937120;29;20031;-73
2023/07/22 02:33:18;;;;;;;18.48;7.60;;;15.50;99.90;;;;;;4936967;29;20391;-70
2023/07/22 02:35:43;;;;;;;13.10;7.00;;;15.50;99.90;;;;;;4936989;29;20032;-69
2023/07/22 02:38:09;;;;;;;14.10;8.02;;;15.40;99.90;;;;;;4937057;29;20381;-73
2023/07/22 02:40:36;;;;;;;13.02;7.15;;;15.40;99.90;;;;;;4936383;29;20139;-73
2023/07/22 02:43:02;;;;;;;15.82;7.38;;;15.40;99.90;;;;;;4936879;29;20059;-72
2023/07/22 02:45:27;;;;;;;13.15;7.25;;;15.40;99.90;;;;;;4936427;29;20070;-72
2023/07/22 02:47:53;;;;;;;13.23;6.75;;;15.40;99.90;;;;;;4936405;29;20032;-72
2023/07/22 02:50:19;;;;;;;14.07;6.93;;;15.40;99.90;;;;;;4936393;29;20051;-69
2023/07/22 02:52:45;;;;;;;13.55;6.70;;;15.40;99.90;;;;;;4936849;29;20036;-72
2023/07/22 02:55:18;;;;;;;15.93;6.93;;;15.40;99.90;;;;;;4936399;29;20397;-71
2023/07/22 02:57:44;;;;;;;13.13;6.82;;;15.40;99.90;;;;;;4936564;29;20031;-71
2023/07/22 03:00:13;;;;;;;12.73;6.38;;;15.50;99.90;;;;;;4935190;29;20397;-73
2023/07/22 03:02:39;;;;;;;11.85;6.40;;;15.50;99.90;;;;;;4936202;29;20158;-72
2023/07/22 03:05:09;;;;;;;12.75;6.30;;;15.50;99.90;;;;;;4936201;29;20028;-72
2023/07/22 03:07:38;;;;;;;11.68;6.65;;;15.60;99.90;;;;;;4936016;29;20396;-73
2023/07/22 03:10:08;;;;;;;14.25;6.90;;;15.60;99.90;;;;;;4935915;29;20032;-71
2023/07/22 03:12:35;;;;;;;12.65;6.63;;;15.60;99.90;;;;;;4936099;29;20053;-71
2023/07/22 03:15:01;;;;;;;11.10;6.30;;;15.70;99.90;;;;;;4935812;29;20369;-72
2023/07/22 03:17:26;;;;;;;12.43;6.22;;;15.70;99.90;;;;;;4936150;29;20106;-73
2023/07/22 03:19:52;;;;;;;16.23;6.78;;;15.70;99.90;;;;;;4936290;29;20126;-72
2023/07/22 03:22:18;;;;;;;13.60;6.78;;;15.70;99.90;;;;;;4935477;29;20028;-71
2023/07/22 03:24:45;;;;;;;10.70;5.70;;;15.80;99.90;;;;;;4935262;29;20038;-71
2023/07/22 03:27:11;;;;;;;12.38;6.32;;;15.80;99.90;;;;;;4936105;29;20335;-74
2023/07/22 03:29:38;;;;;;;10.40;5.15;;;15.90;99.90;;;;;;4936140;29;20079;-71
2023/07/22 03:32:04;;;;;;;13.63;6.30;;;15.90;99.90;;;;;;4935716;29;20032;-72
2023/07/22 03:34:30;;;;;;;12.63;5.88;;;15.90;99.90;;;;;;4936170;29;20119;-72
2023/07/22 03:36:56;;;;;;;12.07;6.18;;;16.00;99.90;;;;;;4935342;29;20027;-71
2023/07/22 03:39:22;;;;;;;11.32;5.93;;;16.00;99.90;;;;;;4935864;29;20570;-73
2023/07/22 03:41:47;;;;;;;12.48;6.13;;;15.90;99.90;;;;;;4935532;29;20087;-72
2023/07/22 03:44:14;;;;;;;10.25;5.05;;;15.90;99.90;;;;;;4935320;29;20036;-72
2023/07/22 03:46:39;;;;;;;11.95;5.85;;;15.90;99.90;;;;;;4935538;29;20030;-71
2023/07/22 03:49:05;;;;;;;12.43;5.50;;;15.90;99.90;;;;;;4935245;29;20032;-71
2023/07/22 03:51:31;;;;;;;9.43;4.30;;;15.90;99.90;;;;;;4935221;29;20054;-70
2023/07/22 03:53:57;;;;;;;8.93;5.03;;;15.90;99.90;;;;;;4935476;29;20064;-71
2023/07/22 03:56:23;;;;;;;14.00;6.00;;;15.80;99.90;;;;;;4935752;29;20036;-71
2023/07/22 03:58:52;;;;;;;14.95;6.10;;;15.90;99.90;;;;;;4935466;29;20020;-71
2023/07/22 04:01:18;;;;;;;9.60;4.53;;;15.90;99.90;;;;;;4935041;29;20036;-71
2023/07/22 04:03:43;;;;;;;8.20;4.85;;;15.90;99.90;;;;;;4935605;29;20031;-72
2023/07/22 04:06:09;;;;;;;8.55;4.32;;;15.80;99.90;;;;;;4933871;29;20079;-72
2023/07/22 04:08:34;;;;;;;6.90;4.00;;;15.90;99.90;;;;;;4935178;29;20083;-72
2023/07/22 04:11:00;;;;;;;9.15;3.97;;;15.90;99.90;;;;;;4935180;29;20035;-71
2023/07/22 04:13:26;;;;;;;7.70;4.07;;;15.90;99.90;;;;;;4935251;29;20326;-69
2023/07/22 04:15:52;;;;;;;7.03;3.47;;;16.00;99.90;;;;;;4935014;29;20039;-71
2023/07/22 04:18:19;;;;;;;8.65;3.47;;;16.00;99.90;;;;;;4935241;29;20040;-69
2023/07/22 04:20:45;;;;;;;5.53;3.30;;;16.10;99.90;;;;;;4933807;29;20039;-70
2023/07/22 04:23:12;;;;;;;7.10;3.30;;;16.10;99.90;;;;;;4935014;29;20032;-71
2023/07/22 04:25:44;;;;;;;7.43;3.38;;;16.20;99.90;;;;;;4935234;29;20059;-70
2023/07/22 04:28:10;;;;;;;7.90;3.42;;;16.30;99.90;;;;;;4935192;29;20036;-71
2023/07/22 04:30:37;;;;;;;9.68;3.63;;;16.40;99.90;;;;;;4934914;29;20440;-71
2023/07/22 04:33:03;;;;;;;6.28;3.70;;;16.50;99.90;;;;;;4934875;29;20471;-72
2023/07/22 04:35:37;;;;;;;6.93;3.10;;;16.50;99.90;;;;;;4936207;29;20035;-73
2023/07/22 04:38:03;;;;;;;5.97;2.97;;;16.60;99.90;;;;;;4938684;29;20063;-72
2023/07/22 04:40:30;;;;;;;7.90;3.22;;;16.70;99.90;;;;;;4938996;29;20162;-71
2023/07/22 04:42:56;;;;;;;7.38;3.15;;;16.70;99.90;;;;;;4938758;29;20168;-69
2023/07/22 04:45:23;;;;;;;5.72;3.05;;;16.80;99.90;;;;;;4938947;29;20432;-71
2023/07/22 04:47:50;;;;;;;6.50;3.00;;;16.90;99.90;;;;;;4938422;29;20035;-73
2023/07/22 04:50:16;;;;;;;8.50;3.60;;;16.90;99.90;;;;;;4937625;29;20483;-73
2023/07/22 04:52:45;;;;;;;7.40;4.18;;;17.00;99.90;;;;;;4939114;29;20039;-71
2023/07/22 04:55:10;;;;;;;9.13;3.60;;;17.00;99.90;;;;;;4939183;29;20039;-69
2023/07/22 04:57:37;;;;;;;6.53;3.58;;;17.00;99.90;;;;;;4939076;29;20102;-70
2023/07/22 05:00:09;;;;;;;8.50;4.03;;;17.00;99.90;;;;;;4939036;29;20079;-72
2023/07/22 05:02:34;;;;;;;8.35;3.95;;;17.00;99.90;;;;;;4938496;29;20048;-71
2023/07/22 05:05:00;;;;;;;7.38;3.80;;;16.90;99.90;;;;;;4938374;29;20399;-72
2023/07/22 05:07:26;;;;;;;6.72;3.55;;;16.90;99.90;;;;;;4938568;29;20540;-72
2023/07/22 05:09:52;;;;;;;8.93;3.72;;;16.90;99.90;;;;;;4938235;29;20028;-70
2023/07/22 05:12:18;;;;;;;9.68;4.25;;;16.90;99.90;;;;;;4938298;29;20114;-72
2023/07/22 05:14:45;;;;;;;9.30;4.25;;;17.00;99.90;;;;;;4938255;29;20044;-73
2023/07/22 05:17:11;;;;;;;11.23;4.18;;;17.00;99.90;;;;;;4938005;29;20027;-73
2023/07/22 05:19:36;;;;;;;10.15;4.07;;;17.00;99.90;;;;;;4938104;29;20484;-72
2023/07/22 05:22:02;;;;;;;9.35;4.13;;;17.10;99.90;;;;;;4938048;29;20048;-73
2023/07/22 05:24:27;;;;;;;11.57;4.57;;;17.10;99.90;;;;;;4937859;29;20036;-73
2023/07/22 05:26:53;;;;;;;10.68;5.03;;;17.20;99.90;;;;;;4927320;29;20067;-71
2023/07/22 05:29:19;;;;;;;12.60;4.68;;;17.10;99.90;;;;;;4927289;29;20431;-72
2023/07/22 05:31:46;;;;;;;11.93;4.93;;;17.10;99.90;;;;;;4928439;29;20028;-69
2023/07/22 05:34:12;;;;;;;9.10;4.90;;;17.10;99.90;;;;;;4927382;29;20039;-70
2023/07/22 05:36:37;;;;;;;12.80;5.13;;;17.10;99.90;;;;;;4928702;29;20075;-70
2023/07/22 05:39:03;;;;;;;12.90;5.47;;;17.00;99.90;;;;;;4927712;29;20065;-70
2023/07/22 05:41:29;;;;;;;11.05;4.85;;;17.00;99.90;;;;;;4927055;29;20052;-70
2023/07/22 05:43:54;;;;;;;11.00;5.13;;;17.00;99.90;;;;;;4928546;29;20027;-73
2023/07/22 05:46:20;;;;;;;11.95;5.43;;;17.00;99.90;;;;;;4926728;29;20043;-72
2023/07/22 05:48:45;;;;;;;10.18;5.22;;;17.00;99.90;;;;;;4926650;29;20032;-71
2023/07/22 05:51:11;;;;;;;10.55;4.93;;;17.10;99.90;;;;;;4927754;29;20034;-70
2023/07/22 05:53:36;;;;;;;10.27;4.93;;;17.20;99.90;;;;;;4927227;29;20156;-72
2023/07/22 05:56:02;;;;;;;10.38;5.00;;;17.20;99.90;;;;;;4928212;29;20063;-71
2023/07/22 05:58:27;;;;;;;11.55;4.82;;;17.20;99.90;;;;;;4928129;29;20024;-71
2023/07/22 06:00:54;;;;;;;10.45;5.05;;;17.20;99.90;;;;;;4926339;29;20096;-72
2023/07/22 06:03:20;;;;;;;12.40;5.13;;;17.30;99.90;;;;;;4941352;29;20059;-71
2023/07/22 06:05:46;;;;;;;10.35;4.97;;;17.40;99.90;;;;;;4943862;29;20032;-72
2023/07/22 06:08:12;;;;;;;10.18;4.88;;;17.70;99.90;;;;;;4956378;28;20039;-70
2023/07/22 06:10:39;;;;;;;11.02;5.25;;;17.90;99.90;;;;;;4956332;29;20114;-71
2023/07/22 06:13:05;;;;;;;10.60;5.55;;;18.10;99.90;;;;;;4952114;28;20103;-71
2023/07/22 06:15:30;;;;;;;15.95;6.55;;;18.30;99.90;;;;;;4945670;29;20027;-70
2023/07/22 06:17:56;;;;;;;13.85;6.15;;;18.20;99.90;;;;;;4956141;29;20082;-70
2023/07/22 06:20:21;;;;;;;10.50;5.82;;;18.20;99.90;;;;;;4956357;29;20042;-71
2023/07/22 06:22:47;;;;;;;13.25;5.97;;;18.20;99.90;;;;;;4955928;29;20044;-71
2023/07/22 06:25:12;;;;;;;16.08;6.82;;;18.20;99.90;;;;;;4944543;29;20109;-70
2023/07/22 06:27:38;;;;;;;14.45;6.68;;;18.10;99.90;;;;;;4955909;29;20058;-73
2023/07/22 06:30:04;;;;;;;20.17;9.45;;;18.00;99.90;;;;;;4955670;29;20035;-72
2023/07/22 06:32:30;;;;;;;19.55;8.30;;;18.00;99.90;;;;;;4955663;28;20439;-72
2023/07/22 06:34:59;;;;;;;18.35;9.15;;;18.00;99.90;;;;;;4955888;29;20070;-71
2023/07/22 06:37:24;;;;;;;19.88;9.55;;;17.90;99.90;;;;;;4955767;29;20027;-71
2023/07/22 06:39:50;;;;;;;19.25;8.57;;;17.90;99.90;;;;;;4955954;29;20027;-71
2023/07/22 06:42:15;;;;;;;22.08;12.13;;;18.00;99.90;;;;;;4955026;28;20055;-71
2023/07/22 06:44:41;;;;;;;22.63;10.98;;;18.10;99.90;;;;;;4955506;28;20142;-72
2023/07/22 06:47:07;;;;;;;24.65;13.45;;;18.10;99.90;;;;;;4955735;29;20494;-71
2023/07/22 06:49:32;;;;;;;22.38;10.70;;;18.20;99.90;;;;;;4955890;28;20035;-72
2023/07/22 06:51:58;;;;;;;24.70;12.38;;;18.20;99.90;;;;;;4955818;28;20452;-71
2023/07/22 06:54:23;;;;;;;24.85;11.52;;;18.20;99.90;;;;;;4956043;29;20031;-68
2023/07/22 06:56:49;;;;;;;26.25;12.75;;;18.10;99.90;;;;;;4955854;29;20034;-67
2023/07/22 06:59:14;;;;;;;25.92;13.20;;;17.90;99.90;;;;;;4954862;28;20037;-67
2023/07/22 07:01:40;;;;;;;26.73;13.30;;;17.80;99.90;;;;;;4955274;29;20047;-68
2023/07/22 07:04:06;;;;;;;29.80;16.25;;;17.60;99.90;;;;;;4955231;28;20420;-67
2023/07/22 07:06:32;;;;;;;36.47;15.68;;;17.60;99.90;;;;;;4955316;29;20031;-67
2023/07/22 07:09:01;;;;;;;33.65;15.93;;;17.50;99.90;;;;;;4954849;29;20412;-68
2023/07/22 07:11:28;;;;;;;40.88;20.15;;;17.40;99.90;;;;;;4955079;29;20031;-65
2023/07/22 07:13:54;;;;;;;31.92;15.10;;;17.30;99.90;;;;;;4955199;28;20028;-67
2023/07/22 07:16:27;;;;;;;38.28;20.38;;;17.20;99.90;;;;;;4955333;29;20443;-68
2023/07/22 07:18:53;;;;;;;33.70;18.45;;;17.20;99.90;;;;;;4955378;28;20043;-67
2023/07/22 07:21:19;;;;;;;32.75;17.58;;;17.20;99.90;;;;;;4923693;29;20038;-67
2023/07/22 07:23:45;;;;;;;36.50;18.55;;;17.20;99.90;;;;;;4955099;28;20019;-68
2023/07/22 07:26:10;;;;;;;36.00;20.60;;;17.20;99.90;;;;;;4954922;28;20403;-68
2023/07/22 07:28:36;;;;;;;35.65;17.95;;;17.30;99.90;;;;;;4954790;29;20031;-69
2023/07/22 07:31:01;;;;;;;40.88;21.20;;;17.40;99.90;;;;;;4954804;29;20039;-70
2023/07/22 07:33:27;;;;;;;35.03;17.20;;;17.60;99.90;;;;;;4954572;29;20502;-67
2023/07/22 07:35:53;;;;;;;35.50;19.05;;;17.70;99.90;;;;;;4954698;28;20027;-68
2023/07/22 07:38:18;;;;;;;33.95;17.75;;;17.80;99.90;;;;;;4954646;29;20055;-69
2023/07/22 07:40:44;;;;;;;30.15;16.30;;;17.90;99.90;;;;;;4941746;29;20039;-69
2023/07/22 07:43:09;;;;;;;32.40;17.90;;;18.00;99.90;;;;;;4938814;29;20510;-69
2023/07/22 07:45:38;;;;;;;35.22;19.88;;;18.00;99.90;;;;;;4954747;29;20058;-67
2023/07/22 07:48:05;;;;;;;34.88;17.98;;;18.00;99.90;;;;;;4954483;28;20063;-70
2023/07/22 07:50:31;;;;;;;37.67;20.05;;;18.10;99.90;;;;;;4954755;28;20032;-67
2023/07/22 07:52:57;;;;;;;41.88;22.63;;;18.00;99.90;;;;;;4954506;28;20106;-69
2023/07/22 07:55:22;;;;;;;32.63;17.85;;;18.00;99.90;;;;;;4954142;29;20155;-69
2023/07/22 07:57:48;;;;;;;34.40;17.77;;;18.10;99.90;;;;;;4952674;29;20024;-69
2023/07/22 08:00:14;;;;;;;33.22;17.55;;;18.10;99.90;;;;;;4939025;29;20027;-68
2023/07/22 08:02:40;;;;;;;33.55;15.25;;;18.20;99.90;;;;;;4948932;29;20395;-68
2023/07/22 08:05:05;;;;;;;26.95;13.52;;;18.30;99.90;;;;;;4949618;29;20063;-70
2023/07/22 08:07:31;;;;;;;29.98;13.95;;;18.30;99.90;;;;;;4938880;29;20054;-70
2023/07/22 08:09:58;;;;;;;31.55;15.25;;;18.30;99.90;;;;;;4943073;28;20043;-69
2023/07/22 08:12:23;;;;;;;28.25;13.85;;;18.30;99.90;;;;;;4953557;28;20075;-70
2023/07/22 08:14:49;;;;;;;22.48;9.02;;;18.30;99.90;;;;;;4954133;29;20035;-71
2023/07/22 08:17:15;;;;;;;25.10;10.82;;;18.30;99.90;;;;;;4954261;29;20492;-69
2023/07/22 08:19:40;;;;;;;11.90;5.13;;;18.50;99.90;;;;;;4952383;29;20094;-68
2023/07/22 08:22:06;;;;;;;13.48;5.78;;;18.80;99.90;;;;;;4945303;29;20038;-67
2023/07/22 08:24:32;;;;;;;9.50;2.95;;;19.20;99.90;;;;;;4946314;29;20039;-71
2023/07/22 08:26:58;;;;;;;9.98;4.38;;;19.60;99.90;;;;;;4951346;29;20067;-68
2023/07/22 08:29:24;;;;;;;11.25;4.07;;;20.00;99.90;;;;;;4954129;28;20054;-68
2023/07/22 08:31:50;;;;;;;13.05;4.80;;;20.30;99.90;;;;;;4954413;28;20027;-70
2023/07/22 08:34:15;;;;;;;9.00;3.40;;;20.90;99.90;;;;;;4953985;28;20031;-68
2023/07/22 08:36:41;;;;;;;10.13;3.22;;;21.50;99.90;;;;;;4954031;29;20431;-71
2023/07/22 08:39:07;;;;;;;4.95;3.03;;;21.90;99.90;;;;;;4942825;28;20070;-70
2023/07/22 08:41:33;;;;;;;5.45;2.17;;;22.20;99.90;;;;;;4941409;29;20087;-70
2023/07/22 08:44:00;;;;;;;9.18;2.90;;;22.40;99.90;;;;;;4953928;29;20411;-71
2023/07/22 08:46:29;;;;;;;6.55;2.35;;;22.70;99.90;;;;;;4954084;28;20024;-70
2023/07/22 08:48:56;;;;;;;5.05;2.50;;;23.30;99.90;;;;;;4953862;28;20467;-71
2023/07/22 08:51:23;;;;;;;8.55;2.42;;;23.60;98.20;;;;;;4953910;28;20140;-70
2023/07/22 08:53:50;;;;;;;4.03;2.17;;;23.70;98.30;;;;;;4953503;28;20050;-71
2023/07/22 08:56:16;;;;;;;11.73;3.60;;;23.70;98.00;;;;;;4953858;28;20482;-68
2023/07/22 08:58:43;;;;;;;6.15;2.75;;;24.00;97.90;;;;;;4953561;28;20032;-69
2023/07/22 09:01:09;;;;;;;5.88;2.53;;;24.20;96.80;;;;;;4953747;28;20074;-70
2023/07/22 09:03:35;;;;;;;4.15;2.05;;;23.90;96.40;;;;;;4953585;28;20042;-70
2023/07/22 09:06:04;;;;;;;5.82;2.72;;;23.50;96.80;;;;;;4944170;28;20388;-71
2023/07/22 09:08:29;;;;;;;6.97;2.58;;;23.30;97.10;;;;;;4934791;29;20392;-70
2023/07/22 09:10:56;;;;;;;9.18;2.40;;;23.20;97.00;;;;;;4950189;28;20030;-70
2023/07/22 09:13:24;;;;;;;6.25;2.55;;;23.10;97.30;;;;;;4953499;28;20024;-72
2023/07/22 09:15:51;;;;;;;5.57;2.72;;;22.90;97.30;;;;;;4953803;28;20066;-68
2023/07/22 09:18:16;;;;;;;4.47;2.30;;;22.80;97.80;;;;;;4953138;28;20062;-71
2023/07/22 09:20:42;;;;;;;6.45;2.90;;;22.70;97.80;;;;;;4952907;29;20031;-70
2023/07/22 09:23:08;;;;;;;7.88;2.75;;;22.60;98.20;;;;;;4954825;28;20039;-70
2023/07/22 09:25:33;;;;;;;14.38;4.82;;;22.60;98.40;;;;;;4956810;29;20020;-70
2023/07/22 09:28:00;;;;;;;5.78;2.30;;;22.80;98.20;;;;;;4957003;29;20384;-70
2023/07/22 09:30:38;;;;;;;8.07;2.53;;;22.80;97.30;;;;;;4956800;28;20490;-69
2023/07/22 09:33:07;;;;;;;6.68;2.40;;;22.70;97.30;;;;;;4937827;28;20371;-68
2023/07/22 09:35:47;;;;;;;5.60;2.35;;;22.60;97.20;;;;;;4941866;29;20387;-69
2023/07/22 09:38:15;;;;;;;4.72;1.58;;;22.60;97.30;;;;;;4956741;28;20042;-69
2023/07/22 09:40:41;;;;;;;9.15;3.83;;;22.50;97.20;;;;;;4957071;28;20038;-71
2023/07/22 09:43:10;;;;;;;11.60;3.80;;;22.30;97.70;;;;;;4956457;28;20120;-70
2023/07/22 09:45:37;;;;;;;7.90;3.67;;;22.10;97.50;;;;;;4956915;28;20034;-71
2023/07/22 09:48:03;;;;;;;5.78;3.17;;;21.80;97.60;;;;;;4956917;28;20043;-70
2023/07/22 09:50:29;;;;;;;6.88;3.17;;;21.80;97.70;;;;;;4956939;28;20043;-71
2023/07/22 09:53:00;;;;;;;3.40;2.08;;;21.70;97.20;;;;;;4956345;28;20036;-70
2023/07/22 09:55:30;;;;;;;6.60;2.67;;;21.70;97.40;;;;;;4956402;28;20030;-71
2023/07/22 09:57:57;;;;;;;7.18;3.13;;;21.80;97.40;;;;;;4956484;28;20027;-69
2023/07/22 10:00:31;;;;;;;7.07;2.80;;;21.80;97.50;;;;;;4956200;28;20035;-70
2023/07/22 10:02:59;;;;;;;4.68;2.47;;;21.60;96.70;;;;;;4955866;29;20054;-70
2023/07/22 10:05:25;;;;;;;6.57;1.70;;;21.50;97.20;;;;;;4949955;28;20023;-71
2023/07/22 10:07:54;;;;;;;6.03;2.63;;;21.60;97.20;;;;;;4941593;29;20054;-68
2023/07/22 10:10:22;;;;;;;8.20;2.42;;;21.80;97.30;;;;;;4948361;29;20435;-69
2023/07/22 10:12:48;;;;;;;5.40;2.50;;;22.00;97.40;;;;;;4943065;28;20094;-70
2023/07/22 10:15:15;;;;;;;5.03;2.50;;;22.30;97.30;;;;;;4937326;29;20475;-70
2023/07/22 10:17:42;;;;;;;4.72;2.05;;;22.60;96.70;;;;;;4942574;29;20039;-71
2023/07/22 10:20:14;;;;;;;5.65;2.08;;;22.70;95.80;;;;;;4939971;29;20046;-70
2023/07/22 10:22:41;;;;;;;5.68;2.47;;;22.70;96.20;;;;;;4947929;29;20032;-70
2023/07/22 10:25:10;;;;;;;4.38;2.00;;;22.90;96.20;;;;;;4954434;29;20027;-71
2023/07/22 10:27:36;;;;;;;6.30;2.30;;;23.10;95.90;;;;;;4953647;29;20102;-70
2023/07/22 10:30:02;;;;;;;5.45;2.05;;;23.30;95.70;;;;;;4945975;29;20026;-70
2023/07/22 10:32:35;;;;;;;4.60;1.85;;;23.50;95.70;;;;;;4955790;28;20074;-72
2023/07/22 10:35:00;;;;;;;5.43;2.70;;;23.80;95.20;;;;;;4955330;28;20031;-69
2023/07/22 10:37:33;;;;;;;4.35;1.80;;;24.10;94.80;;;;;;4944601;29;20534;-68
2023/07/22 10:40:28;;;;;;;7.38;2.13;;;24.00;94.70;;;;;;4944810;29;20090;-71
2023/07/22 10:43:05;;;;;;;5.57;1.95;;;24.00;94.00;;;;;;4955585;28;20055;-71
2023/07/22 10:45:39;;;;;;;6.07;1.55;;;23.90;94.00;;;;;;4955650;28;20031;-73
2023/07/22 10:48:13;;;;;;;3.97;1.75;;;23.90;94.00;;;;;;4946720;28;20086;-72
2023/07/22 10:50:52;;;;;;;4.13;1.83;;;23.70;94.30;;;;;;4945429;29;20031;-69
2023/07/22 10:53:24;;;;;;;3.78;1.40;;;23.60;94.50;;;;;;4936486;29;20556;-70
2023/07/22 10:56:24;;;;;;;5.95;1.60;;;23.50;94.50;;;;;;4944525;29;20037;-69
2023/07/22 10:58:50;;;;;;;6.60;1.63;;;23.60;94.30;;;;;;4955291;28;20031;-70
2023/07/22 11:01:37;;;;;;;4.43;1.48;;;23.70;94.30;;;;;;4954121;29;20121;-70
2023/07/22 11:04:06;;;;;;;4.03;1.60;;;23.70;94.40;;;;;;4938688;28;20654;-71
2023/07/22 11:06:32;;;;;;;5.43;1.35;;;23.50;94.70;;;;;;4942381;29;20027;-70
2023/07/22 11:08:57;;;;;;;4.85;1.40;;;23.80;94.00;;;;;;4951580;29;20464;-69
2023/07/22 11:11:53;;;;;;;4.20;1.45;;;23.90;93.70;;;;;;4955536;28;20038;-71
2023/07/22 11:14:21;;;;;;;4.03;1.52;;;23.90;93.90;;;;;;4942840;28;20472;-69
2023/07/22 11:16:48;;;;;;;5.30;1.65;;;24.60;93.30;;;;;;4955349;28;20384;-71
2023/07/22 11:19:15;;;;;;;7.47;1.63;;;25.30;92.60;;;;;;4954879;28;20430;-70
2023/07/22 11:21:45;;;;;;;4.45;1.63;;;25.80;91.70;;;;;;4954449;28;20174;-70
2023/07/22 11:24:11;;;;;;;3.80;1.65;;;26.40;90.70;;;;;;4954646;28;20031;-71
2023/07/22 11:26:37;;;;;;;7.88;1.88;;;26.60;90.30;;;;;;4955063;29;20035;-71
2023/07/22 11:29:05;;;;;;;4.10;2.20;;;27.00;89.90;;;;;;4954540;28;20047;-71
2023/07/22 11:31:32;;;;;;;5.93;2.15;;;27.20;89.70;;;;;;4954726;28;20074;-69
2023/07/22 11:33:57;;;;;;;5.72;2.33;;;27.10;89.90;;;;;;4947261;28;20023;-71
2023/07/22 11:36:23;;;;;;;5.60;1.90;;;27.30;90.00;;;;;;4953743;28;20042;-70
2023/07/22 11:38:48;;;;;;;6.50;2.28;;;27.30;90.10;;;;;;4954635;29;20055;-70
2023/07/22 11:41:14;;;;;;;7.05;2.88;;;27.30;89.80;;;;;;4953071;28;20098;-72
2023/07/22 11:43:40;;;;;;;7.93;3.58;;;27.20;89.90;;;;;;4954905;28;20035;-72
2023/07/22 11:46:06;;;;;;;11.88;5.18;;;27.10;89.50;;;;;;4953947;28;20062;-72
2023/07/22 11:48:32;;;;;;;12.15;5.80;;;26.80;89.90;;;;;;4954315;28;20387;-71
2023/07/22 11:51:01;;;;;;;8.20;3.42;;;26.30;90.30;;;;;;4954314;29;20033;-71
2023/07/22 11:53:30;;;;;;;7.70;2.58;;;25.90;90.20;;;;;;4953712;29;20425;-71
2023/07/22 11:55:56;;;;;;;9.05;2.22;;;25.60;90.70;;;;;;4954479;28;20031;-72
2023/07/22 11:58:26;;;;;;;5.93;2.08;;;25.30;91.00;;;;;;4953154;28;20082;-71
2023/07/22 12:01:10;;;;;;;8.55;2.60;;;24.90;90.90;;;;;;4954357;28;20035;-71
2023/07/22 12:03:36;;;;;;;7.47;2.28;;;24.50;91.30;;;;;;4927437;29;20364;-71
2023/07/22 12:06:11;;;;;;;5.47;2.50;;;24.20;92.00;;;;;;4954020;29;20038;-72
2023/07/22 12:08:44;;;;;;;6.90;2.60;;;23.90;92.40;;;;;;4954231;28;20035;-70
2023/07/22 12:11:19;;;;;;;6.47;2.10;;;23.80;92.40;;;;;;4947894;28;20036;-70
2023/07/22 12:13:46;;;;;;;6.47;2.25;;;23.80;92.50;;;;;;4943399;28;20023;-70
2023/07/22 12:16:13;;;;;;;7.63;2.33;;;23.70;92.90;;;;;;4945523;29;20050;-70
2023/07/22 12:18:46;;;;;;;6.20;2.30;;;23.60;93.20;;;;;;4953155;29;20351;-72
2023/07/22 12:21:15;;;;;;;10.73;2.83;;;23.70;92.70;;;;;;4953977;29;20035;-70
2023/07/22 12:23:42;;;;;;;6.90;2.38;;;23.80;92.80;;;;;;4947798;28;20045;-71
2023/07/22 12:26:08;;;;;;;6.50;2.70;;;23.60;92.70;;;;;;4948870;28;20106;-71
2023/07/22 12:28:34;;;;;;;7.85;2.92;;;23.50;92.70;;;;;;4953973;29;20102;-72
2023/07/22 12:31:00;;;;;;;8.40;2.53;;;23.50;92.80;;;;;;4953411;29;20364;-70
2023/07/22 12:33:25;;;;;;;8.57;2.90;;;23.40;92.90;;;;;;4954245;29;20031;-70
2023/07/22 12:35:54;;;;;;;10.32;3.20;;;23.30;92.90;;;;;;4954020;28;20086;-71
2023/07/22 12:38:19;;;;;;;8.68;3.63;;;23.10;93.40;;;;;;4953776;28;20030;-72
2023/07/22 12:40:45;;;;;;;12.75;4.20;;;22.80;93.50;;;;;;4953058;29;20039;-71